Syracuse, KS (67878)

6:10 PM MST on December 17, 2014 (GMT -0700)
Pics By Clayton Photography | Change Station
CLOSE
Current Station
Personal Weather Station
Location: Kendall, KS
Elevation: 3172 ft
Nearby Weather Stations

Elev 3172 ft 37.93 °N, 101.52 °W | Updated 3 minutes ago

Overcast
Overcast
35.4 °F
Feels Like 28 °F
N
9.0
Wind Variable Wind from SSE
Gusts 13.0 mph

Today
High -- | Low -- °F
--% Chance of Precip.
Yesterday
High -- | Low -- °F
Precip. -- in
6:57 AM 4:29 PM
Waning Crescent, 18% visible
Pressure 30.05 in
Visibility 10.0 miles
Clouds Overcast 900 ft
Windchill 28 °F
Dew Point 31 °F
Humidity 85%
Rainfall 0.00 in
Snow Depth Not available.
UV 0.0 out of 12
Pollen .10 out of 12
Air Quality Not available.
Flu Activity Not available.
METAR KLAA 180053Z AUTO 27004KT 10SM OVC009 M02/M03 A2999 RMK AO2 SLP175 T10171033

More Conditions Fewer Conditions

Pressure 30.05 in
Visibility 10.0 miles
Clouds Overcast 900 ft
Windchill 28 °F
Dew Point 31 °F
Humidity 85%
Rainfall 0.00 in
Snow Depth Not available.
UV 0.0 out of 12
Pollen .10 out of 12
Air Quality Not available.
Flu Activity Not available.
METAR KLAA 180053Z AUTO 27004KT 10SM OVC009 M02/M03 A2999 RMK AO2 SLP175 T10171033

More Conditions Fewer Conditions

10-Day Weather Forecast

Almanac

Astronomy

Dec. 17, 2014 Rise Set
Actual Time
Civil Twilight
Nautical Twilight
Astronomical Twilight
Moon
Length of Visible Light
Length of Day
Tomorrow will be .
, % of the Moon is Illuminated

Today's Extremes

State Highs State Lows

Community

WunderPhotos

Upload Photos

1,778,843 photos uploaded!

WunderBlogs® & News

Nearby

Air Quality

  Air Quality AQ Index Pollutant
Not available.

Snow Depth

Station Depth Elevation

Earthquake Activity

City Distance Mag. Time & Date
Minimum magnitude displayed is 2.5.

Coastal Water Temperatures

Place Temperature

Nearby Weather Stations